Time;durP1;ratioP1;P1;durP2;ratioP2;P2;SDS_P1;SDS_P2;PMS_P1;PMS_P2;Temp;Humidity;BMP_temperature;BMP_pressure;BME280_temperature;BME280_humidity;BME280_pressure;Samples;Min_cycle;Max_cycle;Signal;HPM_P1;HPM_P2
2023/08/25 00:00:00;;;;;;;4.65;2.30;;;19.20;99.90;;;;;;4958585;28;20027;-84
2023/08/25 00:02:26;;;;;;;3.90;2.70;;;19.30;99.90;;;;;;4949962;28;20031;-82
2023/08/25 00:04:52;;;;;;;2.28;1.60;;;19.20;99.90;;;;;;4941756;28;20167;-80
2023/08/25 00:07:18;;;;;;;3.55;2.95;;;19.20;99.90;;;;;;4963526;28;20035;-82
2023/08/25 00:09:45;;;;;;;5.32;4.22;;;19.20;99.90;;;;;;4963068;28;20387;-83
2023/08/25 00:12:12;;;;;;;3.63;2.90;;;19.30;99.90;;;;;;4957183;28;20480;-83
2023/08/25 00:14:37;;;;;;;3.53;2.60;;;19.20;99.90;;;;;;4967435;28;20423;-83
2023/08/25 00:17:03;;;;;;;5.55;1.73;;;19.20;99.90;;;;;;4954145;28;20039;-83
2023/08/25 00:19:29;;;;;;;2.30;1.92;;;19.10;99.90;;;;;;4949072;28;20030;-85
2023/08/25 00:21:55;;;;;;;3.42;1.88;;;19.20;99.90;;;;;;4950290;28;20042;-82
2023/08/25 00:24:21;;;;;;;2.25;1.80;;;19.20;99.90;;;;;;4971165;28;20431;-83
2023/08/25 00:26:46;;;;;;;2.45;1.73;;;19.20;99.90;;;;;;4963739;28;20122;-84
2023/08/25 00:29:12;;;;;;;4.50;2.53;;;19.10;99.90;;;;;;4946056;28;20034;-82
2023/08/25 00:31:38;;;;;;;3.47;1.90;;;19.10;99.90;;;;;;4961129;28;20082;-81
2023/08/25 00:34:04;;;;;;;2.75;2.00;;;19.10;99.90;;;;;;4943246;28;20023;-82
2023/08/25 00:36:30;;;;;;;3.35;1.98;;;19.10;99.90;;;;;;4953509;28;20114;-82
2023/08/25 00:38:56;;;;;;;3.60;1.83;;;19.10;99.90;;;;;;4965895;28;20122;-82
2023/08/25 00:41:22;;;;;;;3.10;2.50;;;19.10;99.90;;;;;;4943897;28;20031;-83
2023/08/25 00:43:48;;;;;;;5.30;2.38;;;19.00;99.90;;;;;;4958787;28;20038;-82
2023/08/25 00:46:15;;;;;;;5.10;2.40;;;19.00;99.90;;;;;;4947312;28;20027;-81
2023/08/25 00:48:43;;;;;;;3.72;2.08;;;19.00;99.90;;;;;;4967738;28;20458;-81
2023/08/25 00:51:09;;;;;;;3.28;2.42;;;18.90;99.90;;;;;;4960278;28;20070;-82
2023/08/25 00:53:37;;;;;;;3.10;2.30;;;18.90;99.90;;;;;;4968455;28;20023;-81
2023/08/25 00:56:03;;;;;;;2.22;1.75;;;19.00;99.90;;;;;;4958288;28;20063;-85
2023/08/25 00:58:29;;;;;;;2.20;1.73;;;19.00;99.90;;;;;;4945386;28;20030;-81
2023/08/25 01:00:56;;;;;;;3.65;3.35;;;19.00;99.90;;;;;;4964353;28;20061;-82
2023/08/25 01:03:22;;;;;;;3.70;2.95;;;19.00;99.90;;;;;;4951074;28;20114;-82
2023/08/25 01:05:48;;;;;;;4.32;2.53;;;19.00;99.90;;;;;;4967793;28;20023;-82
2023/08/25 01:08:19;;;;;;;3.22;2.58;;;18.90;99.90;;;;;;4943527;28;20031;-81
2023/08/25 01:11:22;;;;;;;3.25;2.60;;;18.90;99.90;;;;;;4943761;28;20052;-82
2023/08/25 01:14:03;;;;;;;2.80;2.60;;;18.90;99.90;;;;;;4951392;28;20030;-83
2023/08/25 01:16:48;;;;;;;3.40;2.53;;;18.80;99.90;;;;;;4951147;28;20031;-82
2023/08/25 01:19:54;;;;;;;3.85;3.17;;;18.80;99.90;;;;;;4959295;28;20042;-82
2023/08/25 01:22:56;;;;;;;3.20;2.88;;;18.80;99.90;;;;;;4953652;28;20039;-82
2023/08/25 01:25:27;;;;;;;4.63;3.28;;;18.80;99.90;;;;;;4944067;28;20075;-82
2023/08/25 01:27:58;;;;;;;3.35;3.05;;;18.80;99.90;;;;;;4951846;28;20034;-86
2023/08/25 01:30:26;;;;;;;3.42;3.13;;;18.80;99.90;;;;;;4950469;28;20039;-82
2023/08/25 01:32:53;;;;;;;3.80;3.50;;;18.80;99.90;;;;;;4945308;28;20047;-82
2023/08/25 01:35:45;;;;;;;4.88;3.92;;;18.90;99.90;;;;;;4946665;28;20038;-81
2023/08/25 01:38:30;;;;;;;4.75;3.95;;;18.90;99.90;;;;;;4944385;28;20464;-85
2023/08/25 01:41:23;;;;;;;4.53;4.13;;;18.90;99.90;;;;;;4954654;28;20062;-81
2023/08/25 01:43:52;;;;;;;4.68;4.18;;;18.80;99.90;;;;;;4944698;28;20476;-82
2023/08/25 01:46:18;;;;;;;4.68;4.28;;;18.90;99.90;;;;;;4949687;28;20101;-84
2023/08/25 01:48:47;;;;;;;3.92;3.55;;;18.80;99.90;;;;;;4943246;28;20037;-82
2023/08/25 01:51:14;;;;;;;4.32;3.92;;;18.80;99.90;;;;;;4950685;28;20055;-82
2023/08/25 01:53:43;;;;;;;4.72;4.18;;;18.80;99.90;;;;;;4952877;28;20027;-81
2023/08/25 01:56:09;;;;;;;5.03;4.55;;;18.80;99.90;;;;;;4940287;29;20163;-82
2023/08/25 01:58:35;;;;;;;5.05;4.57;;;18.80;99.90;;;;;;4951190;28;20522;-82
2023/08/25 02:01:01;;;;;;;5.10;4.45;;;18.80;99.90;;;;;;4943580;28;20158;-82
2023/08/25 02:03:27;;;;;;;5.82;4.57;;;18.80;99.90;;;;;;4965117;28;20277;-82
2023/08/25 02:05:52;;;;;;;5.32;4.82;;;18.80;99.90;;;;;;4943868;28;20022;-84
2023/08/25 02:08:18;;;;;;;4.63;4.32;;;18.80;99.90;;;;;;4944687;28;20384;-83
2023/08/25 02:10:44;;;;;;;4.78;4.18;;;18.70;99.90;;;;;;4943673;28;20035;-82
2023/08/25 02:13:10;;;;;;;6.00;4.45;;;18.70;99.90;;;;;;4943815;28;20027;-81
2023/08/25 02:15:35;;;;;;;5.40;4.85;;;18.70;99.90;;;;;;4958855;28;20514;-83
2023/08/25 02:18:02;;;;;;;5.20;4.63;;;18.80;99.90;;;;;;4944302;28;20026;-82
2023/08/25 02:20:28;;;;;;;6.28;4.97;;;18.80;99.90;;;;;;4953219;28;20468;-87
2023/08/25 02:22:54;;;;;;;8.25;5.55;;;18.80;99.90;;;;;;4957467;28;20030;-84
2023/08/25 02:25:19;;;;;;;5.22;4.65;;;18.80;99.90;;;;;;4941103;28;20031;-82
2023/08/25 02:27:45;;;;;;;5.40;4.90;;;18.80;99.90;;;;;;4944322;28;20089;-81
2023/08/25 02:30:12;;;;;;;6.07;5.47;;;18.90;99.90;;;;;;4943322;28;20388;-83
2023/08/25 02:32:38;;;;;;;5.85;5.25;;;18.90;99.90;;;;;;4963579;28;20019;-86
2023/08/25 02:35:04;;;;;;;5.85;5.35;;;18.90;99.90;;;;;;4952357;28;20035;-82
2023/08/25 02:37:30;;;;;;;5.38;4.88;;;19.00;99.90;;;;;;4960837;28;20396;-85
2023/08/25 02:39:55;;;;;;;4.68;4.28;;;19.00;99.90;;;;;;4942912;28;20050;-83
2023/08/25 02:42:21;;;;;;;5.80;5.30;;;18.90;99.90;;;;;;4945618;28;20023;-81
2023/08/25 02:44:47;;;;;;;5.63;5.13;;;19.00;99.90;;;;;;4949483;28;20086;-85
2023/08/25 02:47:14;;;;;;;5.90;4.57;;;19.00;99.90;;;;;;4965517;28;20483;-81
2023/08/25 02:49:40;;;;;;;6.63;6.00;;;19.00;99.90;;;;;;4963948;28;20443;-82
2023/08/25 02:52:06;;;;;;;6.43;5.82;;;19.10;99.90;;;;;;4962250;28;20073;-85
2023/08/25 02:54:32;;;;;;;6.15;5.57;;;19.10;99.90;;;;;;4962787;28;20411;-81
2023/08/25 02:56:58;;;;;;;7.47;6.78;;;19.20;99.90;;;;;;4947774;28;20035;-85
2023/08/25 02:59:24;;;;;;;6.45;5.85;;;19.20;99.90;;;;;;4942431;28;20034;-82
2023/08/25 03:01:51;;;;;;;7.03;6.28;;;19.20;99.90;;;;;;4958509;28;20103;-82
2023/08/25 03:04:17;;;;;;;7.38;6.70;;;19.20;99.90;;;;;;4963626;28;20130;-84
2023/08/25 03:06:44;;;;;;;6.75;6.15;;;19.20;99.90;;;;;;4963113;28;20093;-82
2023/08/25 03:09:09;;;;;;;7.65;6.90;;;19.20;99.90;;;;;;4957321;28;20105;-82
2023/08/25 03:11:35;;;;;;;6.95;6.28;;;19.20;99.90;;;;;;4963270;28;20117;-82
2023/08/25 03:14:04;;;;;;;7.60;6.68;;;19.20;99.90;;;;;;4950135;28;20024;-82
2023/08/25 03:16:31;;;;;;;7.80;7.00;;;19.20;99.90;;;;;;4965000;28;20038;-82
2023/08/25 03:18:56;;;;;;;7.60;6.97;;;19.20;99.90;;;;;;4939680;28;20039;-83
2023/08/25 03:21:26;;;;;;;7.50;6.80;;;19.20;99.90;;;;;;4941162;28;20023;-82
2023/08/25 03:23:51;;;;;;;8.52;7.63;;;19.20;99.90;;;;;;4942261;28;20396;-81
2023/08/25 03:26:18;;;;;;;6.63;6.03;;;19.20;99.90;;;;;;4950086;28;20019;-84
2023/08/25 03:28:47;;;;;;;7.68;7.03;;;19.10;99.90;;;;;;4944295;28;20029;-82
2023/08/25 03:31:13;;;;;;;7.13;6.50;;;19.20;99.90;;;;;;4962575;28;20039;-83
2023/08/25 03:33:38;;;;;;;8.43;7.70;;;19.20;99.90;;;;;;4960082;28;20033;-82
2023/08/25 03:36:04;;;;;;;7.35;6.47;;;19.20;99.90;;;;;;4957470;28;20035;-85
2023/08/25 03:38:30;;;;;;;8.27;7.20;;;19.20;99.90;;;;;;4945757;28;20122;-83
2023/08/25 03:40:59;;;;;;;8.30;7.32;;;19.20;99.90;;;;;;4962196;28;20448;-83
2023/08/25 03:43:25;;;;;;;8.63;6.43;;;19.20;99.90;;;;;;4967157;28;20031;-85
2023/08/25 03:45:52;;;;;;;6.57;5.97;;;19.20;99.90;;;;;;4942380;28;20399;-82
2023/08/25 03:48:18;;;;;;;7.85;7.20;;;19.20;99.90;;;;;;4960173;28;20023;-83
2023/08/25 03:50:47;;;;;;;8.35;7.53;;;19.30;99.90;;;;;;4961884;28;20518;-84
2023/08/25 03:53:13;;;;;;;;;;;19.30;99.90;;;;;;4942964;28;20029;-85
2023/08/25 03:55:39;;;;;;;7.65;6.85;;;19.20;99.90;;;;;;4960390;28;20474;-81
2023/08/25 03:58:05;;;;;;;7.55;6.85;;;19.20;99.90;;;;;;4952911;28;20130;-82
2023/08/25 04:00:31;;;;;;;8.10;6.95;;;19.20;99.90;;;;;;4954496;28;20081;-84
2023/08/25 04:02:57;;;;;;;8.57;7.47;;;19.30;99.90;;;;;;4951172;28;20035;-81
2023/08/25 04:05:22;;;;;;;6.88;6.20;;;19.20;99.90;;;;;;4947626;28;20536;-81
2023/08/25 04:07:49;;;;;;;6.60;6.00;;;19.20;99.90;;;;;;4945109;28;20386;-82
2023/08/25 04:10:15;;;;;;;8.07;5.88;;;19.20;99.90;;;;;;4962506;28;20110;-83
2023/08/25 04:12:41;;;;;;;8.98;7.20;;;19.20;99.90;;;;;;4948803;28;20031;-86
2023/08/25 04:15:07;;;;;;;7.90;7.20;;;19.30;99.90;;;;;;4945689;28;20703;-85
2023/08/25 04:17:35;;;;;;;8.52;7.65;;;19.30;99.90;;;;;;4948115;28;20151;-84
2023/08/25 04:20:02;;;;;;;8.50;7.57;;;19.30;99.90;;;;;;4964769;28;20081;-83
2023/08/25 04:22:28;;;;;;;7.88;7.10;;;19.30;99.90;;;;;;4948072;28;20034;-84
2023/08/25 04:24:56;;;;;;;8.80;8.00;;;19.30;99.90;;;;;;4962582;28;20574;-81
2023/08/25 04:27:23;;;;;;;8.52;7.72;;;19.30;99.90;;;;;;4952021;28;20027;-82
2023/08/25 04:29:51;;;;;;;8.85;8.05;;;19.30;99.90;;;;;;4961345;28;20472;-83
2023/08/25 04:32:18;;;;;;;8.93;7.95;;;19.30;99.90;;;;;;4953604;28;20536;-84
2023/08/25 04:34:44;;;;;;;8.82;7.93;;;19.30;99.90;;;;;;4954398;28;20031;-82
2023/08/25 04:37:10;;;;;;;8.88;7.55;;;19.30;99.90;;;;;;4962491;28;20471;-82
2023/08/25 04:39:35;;;;;;;8.40;7.60;;;19.30;99.90;;;;;;4962663;28;20035;-83
2023/08/25 04:42:01;;;;;;;7.30;6.60;;;19.20;99.90;;;;;;4948564;28;20113;-84
2023/08/25 04:44:27;;;;;;;8.32;7.63;;;19.30;99.90;;;;;;4951698;28;20114;-82
2023/08/25 04:46:53;;;;;;;7.72;6.93;;;19.30;99.90;;;;;;4958060;28;20045;-81
2023/08/25 04:49:19;;;;;;;7.63;6.97;;;19.40;99.90;;;;;;4947514;28;20022;-85
2023/08/25 04:51:45;;;;;;;8.43;7.00;;;19.40;99.90;;;;;;4952276;28;20424;-81
2023/08/25 04:54:11;;;;;;;7.40;6.70;;;19.40;99.90;;;;;;4948133;28;20031;-82
2023/08/25 04:56:40;;;;;;;6.75;6.07;;;19.40;99.90;;;;;;4952600;28;20498;-83
2023/08/25 04:59:05;;;;;;;6.80;5.97;;;19.40;99.90;;;;;;4944522;28;20111;-81
2023/08/25 05:01:32;;;;;;;8.05;7.10;;;19.40;99.90;;;;;;4951433;28;20475;-83
2023/08/25 05:03:57;;;;;;;7.18;6.30;;;19.40;99.90;;;;;;4959700;28;20079;-82
2023/08/25 05:06:23;;;;;;;8.40;7.20;;;19.40;99.90;;;;;;4964062;28;20466;-82
2023/08/25 05:08:49;;;;;;;8.18;7.38;;;19.50;99.90;;;;;;4943406;28;20031;-85
2023/08/25 05:11:16;;;;;;;8.98;8.13;;;19.50;99.90;;;;;;4948960;28;20121;-81
2023/08/25 05:13:41;;;;;;;7.78;7.00;;;19.40;99.90;;;;;;4965128;28;20045;-82
2023/08/25 05:16:09;;;;;;;8.38;7.45;;;19.50;99.90;;;;;;4963762;28;20083;-82
2023/08/25 05:18:55;;;;;;;7.80;7.00;;;19.50;99.90;;;;;;4958681;28;20054;-82
2023/08/25 05:21:21;;;;;;;8.05;7.30;;;19.50;99.90;;;;;;4951983;28;20065;-84
2023/08/25 05:23:47;;;;;;;11.48;7.28;;;19.60;99.90;;;;;;4956615;28;20057;-84
2023/08/25 05:26:14;;;;;;;9.00;8.20;;;19.50;99.90;;;;;;4967226;28;20517;-85
2023/08/25 05:28:41;;;;;;;9.23;8.43;;;19.50;99.90;;;;;;4946659;28;20050;-82
2023/08/25 05:31:08;;;;;;;9.50;8.50;;;19.50;99.90;;;;;;4946434;28;20043;-83
2023/08/25 05:33:57;;;;;;;8.93;8.02;;;19.60;99.90;;;;;;4926085;28;20031;-84
2023/08/25 05:36:28;;;;;;;9.25;8.35;;;19.60;99.90;;;;;;4931843;28;20130;-82
2023/08/25 05:38:55;;;;;;;8.45;7.68;;;19.60;99.90;;;;;;4925146;28;20039;-81
2023/08/25 05:41:21;;;;;;;9.63;8.63;;;19.60;99.90;;;;;;4917585;28;20569;-81
2023/08/25 05:43:47;;;;;;;8.90;8.00;;;19.60;99.90;;;;;;4930658;28;20074;-81
2023/08/25 05:46:13;;;;;;;8.65;7.75;;;19.60;99.90;;;;;;4915827;28;20042;-81
2023/08/25 05:48:39;;;;;;;11.45;10.35;;;19.60;99.90;;;;;;4943415;28;20031;-82
2023/08/25 05:51:05;;;;;;;9.93;9.02;;;19.70;99.90;;;;;;4931055;28;20572;-84
2023/08/25 05:53:30;;;;;;;8.75;7.85;;;19.70;99.90;;;;;;4926891;28;20054;-83
2023/08/25 05:55:57;;;;;;;9.07;8.15;;;19.70;99.90;;;;;;4926454;28;20040;-82
2023/08/25 05:58:23;;;;;;;10.57;8.13;;;19.70;99.90;;;;;;4916274;28;20036;-81
2023/08/25 06:00:49;;;;;;;8.85;7.97;;;19.80;99.90;;;;;;4938998;28;20031;-82
2023/08/25 06:03:16;;;;;;;9.88;8.98;;;19.80;99.90;;;;;;4910815;28;20040;-82
2023/08/25 06:05:42;;;;;;;9.57;8.75;;;19.90;99.90;;;;;;4925985;28;20039;-83
2023/08/25 06:08:08;;;;;;;7.93;7.18;;;20.00;99.90;;;;;;4924718;28;20098;-83
2023/08/25 06:10:35;;;;;;;8.55;7.72;;;20.00;99.90;;;;;;4934438;28;20066;-82
2023/08/25 06:13:01;;;;;;;9.13;8.20;;;20.00;99.90;;;;;;4943443;28;20027;-84
2023/08/25 06:15:26;;;;;;;10.80;9.68;;;20.00;99.90;;;;;;4945588;28;20046;-83
2023/08/25 06:17:52;;;;;;;10.23;9.20;;;20.00;99.90;;;;;;4960147;28;20033;-83
2023/08/25 06:20:18;;;;;;;10.35;8.85;;;20.00;99.90;;;;;;4954856;28;20023;-82
2023/08/25 06:22:43;;;;;;;9.00;8.20;;;20.00;99.90;;;;;;4943354;28;20046;-83
2023/08/25 06:25:09;;;;;;;9.43;8.52;;;20.10;99.90;;;;;;4944666;28;20126;-84
2023/08/25 06:27:36;;;;;;;10.80;9.70;;;20.10;99.90;;;;;;4943021;28;20451;-83
2023/08/25 06:30:03;;;;;;;9.45;8.55;;;20.20;99.90;;;;;;4976285;28;20389;-82
2023/08/25 06:32:29;;;;;;;10.98;9.88;;;20.20;99.90;;;;;;4941314;28;20074;-81
2023/08/25 06:34:54;;;;;;;10.00;9.00;;;20.20;99.90;;;;;;4957457;28;20110;-87
2023/08/25 06:37:20;;;;;;;11.48;9.25;;;20.30;99.90;;;;;;4950178;28;20038;-85
2023/08/25 06:39:47;;;;;;;11.18;9.45;;;20.20;99.90;;;;;;4948802;28;20057;-84
2023/08/25 06:42:13;;;;;;;12.32;11.00;;;20.30;99.90;;;;;;4931065;28;20083;-83
2023/08/25 06:44:43;;;;;;;12.10;10.95;;;20.20;99.90;;;;;;4948765;28;20488;-85
2023/08/25 06:47:09;;;;;;;10.48;7.97;;;20.10;99.90;;;;;;4945538;28;20162;-82
2023/08/25 06:49:35;;;;;;;9.82;7.97;;;20.10;99.90;;;;;;4947146;28;20031;-81
2023/08/25 06:52:00;;;;;;;8.65;7.85;;;20.00;99.90;;;;;;4936611;28;20053;-84
2023/08/25 06:54:26;;;;;;;9.20;8.30;;;20.00;99.90;;;;;;4937389;28;20065;-82
2023/08/25 06:56:53;;;;;;;8.95;7.95;;;20.00;99.90;;;;;;4945407;28;20550;-80
2023/08/25 06:59:19;;;;;;;9.05;8.20;;;20.10;99.90;;;;;;4942844;28;20031;-85
2023/08/25 07:01:44;;;;;;;8.68;7.85;;;20.10;99.90;;;;;;4938043;28;20078;-83
2023/08/25 07:04:10;;;;;;;8.20;7.40;;;20.10;99.90;;;;;;4946482;28;20491;-84
2023/08/25 07:06:37;;;;;;;9.73;8.73;;;20.10;99.90;;;;;;4944878;28;20577;-80
2023/08/25 07:09:03;;;;;;;9.02;8.10;;;20.10;99.90;;;;;;4944534;28;20518;-82
2023/08/25 07:11:29;;;;;;;10.68;8.95;;;20.00;99.90;;;;;;4929387;28;20078;-82
2023/08/25 07:13:54;;;;;;;9.88;8.88;;;20.10;99.90;;;;;;4943608;28;20592;-81
2023/08/25 07:16:20;;;;;;;10.63;9.70;;;20.10;99.90;;;;;;4943157;28;20047;-82
2023/08/25 07:18:46;;;;;;;10.07;8.75;;;20.10;99.90;;;;;;4951842;28;20145;-83
2023/08/25 07:21:11;;;;;;;9.63;8.70;;;20.00;99.90;;;;;;4942542;28;20050;-81
2023/08/25 07:23:37;;;;;;;8.48;6.88;;;20.10;99.90;;;;;;4944327;28;20039;-84
2023/08/25 07:26:03;;;;;;;10.02;9.02;;;20.10;99.90;;;;;;4944685;28;20179;-82
2023/08/25 07:28:30;;;;;;;9.73;8.82;;;20.10;99.90;;;;;;4945755;28;20078;-82
2023/08/25 07:30:56;;;;;;;8.45;7.65;;;20.10;99.90;;;;;;4963924;28;20575;-84
2023/08/25 07:33:23;;;;;;;8.13;7.35;;;20.00;99.90;;;;;;4944430;28;20026;-82
2023/08/25 07:35:49;;;;;;;8.38;7.50;;;20.10;99.90;;;;;;4953639;28;20503;-86
2023/08/25 07:38:15;;;;;;;9.95;8.18;;;20.10;99.90;;;;;;4945662;28;20117;-80
2023/08/25 07:40:41;;;;;;;9.68;8.73;;;20.10;99.90;;;;;;4945506;28;20154;-81
2023/08/25 07:43:07;;;;;;;9.85;8.85;;;20.10;99.90;;;;;;4944731;28;20058;-82
2023/08/25 07:45:33;;;;;;;8.43;7.60;;;20.00;99.90;;;;;;4964478;28;20054;-84
2023/08/25 07:48:00;;;;;;;9.05;8.20;;;20.10;99.90;;;;;;4961025;28;20027;-81
2023/08/25 07:50:29;;;;;;;8.80;7.95;;;20.20;99.90;;;;;;4943632;28;20407;-83
2023/08/25 07:52:55;;;;;;;9.55;8.55;;;20.10;99.90;;;;;;4944063;28;20043;-83
2023/08/25 07:55:22;;;;;;;9.77;8.85;;;20.20;99.90;;;;;;4944176;28;21109;-81
2023/08/25 07:57:48;;;;;;;9.52;8.57;;;20.20;99.90;;;;;;4929556;28;20368;-83
2023/08/25 08:00:15;;;;;;;9.43;8.48;;;20.30;99.90;;;;;;4943810;28;20039;-86
2023/08/25 08:02:42;;;;;;;9.65;8.68;;;20.20;99.90;;;;;;4933940;28;20479;-82
2023/08/25 08:05:08;;;;;;;9.35;8.35;;;20.20;99.90;;;;;;4943219;28;20082;-84
2023/08/25 08:07:34;;;;;;;8.38;7.57;;;20.20;99.90;;;;;;4944355;28;20030;-83
2023/08/25 08:10:00;;;;;;;10.55;8.60;;;20.20;99.90;;;;;;4945507;28;20153;-86
2023/08/25 08:12:25;;;;;;;10.10;8.38;;;20.20;99.90;;;;;;4935585;28;20066;-82
2023/08/25 08:14:51;;;;;;;7.68;6.88;;;20.20;99.90;;;;;;4942553;28;20141;-81
2023/08/25 08:17:19;;;;;;;8.73;7.85;;;20.10;99.90;;;;;;4946716;28;20043;-81
2023/08/25 08:19:45;;;;;;;8.50;7.60;;;20.10;99.90;;;;;;4943347;28;20034;-82
2023/08/25 08:22:10;;;;;;;8.45;7.63;;;20.20;99.90;;;;;;4933852;28;20035;-82
2023/08/25 08:24:36;;;;;;;9.98;6.70;;;20.20;99.90;;;;;;4951052;28;20031;-82
2023/08/25 08:27:02;;;;;;;8.80;6.57;;;20.20;99.90;;;;;;4952687;28;20114;-83
2023/08/25 08:29:28;;;;;;;6.93;5.82;;;20.20;99.90;;;;;;4954292;28;20456;-83
2023/08/25 08:31:57;;;;;;;7.80;7.00;;;20.10;99.90;;;;;;4942025;28;20054;-87
2023/08/25 08:34:23;;;;;;;9.05;8.13;;;20.10;99.90;;;;;;4958432;28;20027;-82
2023/08/25 08:36:49;;;;;;;9.02;7.22;;;20.00;99.90;;;;;;4941567;28;20035;-85
2023/08/25 08:39:15;;;;;;;6.65;6.00;;;20.00;99.90;;;;;;4957472;28;20118;-87
2023/08/25 08:41:41;;;;;;;7.72;6.90;;;19.90;99.90;;;;;;4959420;28;20065;-87
2023/08/25 08:44:10;;;;;;;7.35;6.68;;;20.00;99.90;;;;;;4947657;28;20179;-86
2023/08/25 08:46:39;;;;;;;7.68;5.57;;;19.90;99.90;;;;;;4962178;28;20113;-87
2023/08/25 08:49:05;;;;;;;5.57;5.03;;;20.00;99.90;;;;;;4965190;28;20041;-86
2023/08/25 08:51:32;;;;;;;5.72;4.75;;;19.90;99.90;;;;;;4950441;28;20054;-85
2023/08/25 08:53:58;;;;;;;9.05;6.40;;;19.90;99.90;;;;;;4964623;28;20031;-86
2023/08/25 08:56:24;;;;;;;7.55;6.65;;;19.90;99.90;;;;;;4954020;28;20039;-85
2023/08/25 08:58:50;;;;;;;5.40;4.70;;;19.80;99.90;;;;;;4966366;28;20023;-84
2023/08/25 09:01:17;;;;;;;6.43;4.70;;;19.80;99.90;;;;;;4959259;28;20117;-84
2023/08/25 09:03:47;;;;;;;4.03;2.25;;;19.80;99.90;;;;;;4944296;28;20047;-85
2023/08/25 09:06:13;;;;;;;4.63;4.10;;;19.80;99.90;;;;;;4975217;28;20031;-84
2023/08/25 09:08:39;;;;;;;3.42;2.67;;;19.80;99.90;;;;;;4960726;28;20534;-84
2023/08/25 09:11:05;;;;;;;4.18;3.42;;;19.80;99.90;;;;;;4963356;28;20062;-85
2023/08/25 09:13:35;;;;;;;6.60;3.50;;;19.80;99.90;;;;;;4957579;28;20062;-84
2023/08/25 09:16:11;;;;;;;3.88;2.45;;;19.80;99.90;;;;;;4945105;28;20035;-84
2023/08/25 09:18:37;;;;;;;5.03;2.40;;;19.80;99.90;;;;;;4960330;28;20052;-85
2023/08/25 09:21:13;;;;;;;3.97;2.65;;;19.80;99.90;;;;;;4964350;28;20035;-84
2023/08/25 09:24:00;;;;;;;3.42;1.95;;;19.70;99.90;;;;;;4957301;28;20027;-85
2023/08/25 09:26:28;;;;;;;3.30;1.63;;;19.80;99.90;;;;;;4964275;28;20069;-85
2023/08/25 09:28:57;;;;;;;2.88;2.10;;;19.70;99.90;;;;;;4961409;28;20031;-85
2023/08/25 09:31:23;;;;;;;3.13;2.33;;;19.60;99.90;;;;;;4960589;28;20039;-83
2023/08/25 09:34:00;;;;;;;4.55;1.60;;;19.60;99.90;;;;;;4948081;28;20015;-84
2023/08/25 09:36:26;;;;;;;2.33;1.25;;;19.70;99.90;;;;;;4966824;28;20290;-84
2023/08/25 09:38:53;;;;;;;3.25;1.67;;;19.70;99.90;;;;;;4964055;28;20027;-85
2023/08/25 09:41:38;;;;;;;2.05;1.33;;;19.70;99.90;;;;;;4961032;28;20023;-85
2023/08/25 09:44:03;;;;;;;2.95;1.70;;;19.70;99.90;;;;;;4943764;28;20043;-83
2023/08/25 09:46:31;;;;;;;4.15;1.85;;;19.80;99.90;;;;;;4960446;28;20086;-84
2023/08/25 09:49:10;;;;;;;3.20;2.20;;;19.80;99.90;;;;;;4958427;28;20403;-84
2023/08/25 09:51:41;;;;;;;3.50;1.75;;;19.80;99.90;;;;;;4962557;28;20051;-83
2023/08/25 09:54:09;;;;;;;2.05;1.15;;;19.80;99.90;;;;;;4959493;28;20045;-84
2023/08/25 09:56:36;;;;;;;2.13;1.55;;;19.80;99.90;;;;;;4950061;28;20049;-85
2023/08/25 09:59:06;;;;;;;3.33;1.52;;;19.80;99.90;;;;;;4945961;28;20023;-83
2023/08/25 10:01:34;;;;;;;2.50;1.20;;;19.80;99.90;;;;;;4967328;28;20035;-84
2023/08/25 10:04:03;;;;;;;3.65;1.23;;;19.90;99.90;;;;;;4963663;28;20593;-84
2023/08/25 10:06:33;;;;;;;3.90;1.42;;;20.00;99.90;;;;;;4973047;28;20046;-84
2023/08/25 10:08:59;;;;;;;3.53;1.73;;;20.00;99.90;;;;;;4971816;28;20037;-84
2023/08/25 10:11:30;;;;;;;1.90;1.15;;;19.90;99.90;;;;;;4949011;28;20050;-82
2023/08/25 10:13:59;;;;;;;1.88;1.10;;;20.00;99.90;;;;;;4962930;28;20162;-82
2023/08/25 10:16:27;;;;;;;3.70;2.40;;;20.00;99.90;;;;;;4961053;28;20051;-84
2023/08/25 10:18:58;;;;;;;4.10;2.38;;;19.80;99.90;;;;;;4963653;28;20078;-84
2023/08/25 10:21:25;;;;;;;4.22;2.00;;;19.80;99.90;;;;;;4956380;28;20039;-83
2023/08/25 10:23:55;;;;;;;3.15;1.88;;;20.00;99.90;;;;;;4959286;28;20029;-84
2023/08/25 10:26:25;;;;;;;4.07;1.67;;;20.00;99.90;;;;;;4957303;28;20063;-85
2023/08/25 10:28:52;;;;;;;3.17;1.80;;;20.00;99.90;;;;;;4954736;28;20065;-84
2023/08/25 10:31:18;;;;;;;4.88;2.17;;;20.10;99.90;;;;;;4947430;28;20047;-84
2023/08/25 10:33:51;;;;;;;3.58;1.63;;;20.10;99.90;;;;;;4962320;28;20022;-84
2023/08/25 10:36:21;;;;;;;3.17;1.52;;;20.30;99.90;;;;;;4951087;28;20482;-84
2023/08/25 10:38:46;;;;;;;;;;;20.40;99.90;;;;;;4970879;28;20485;-87
2023/08/25 10:41:17;;;;;;;2.42;1.58;;;20.50;99.90;;;;;;4958822;28;19960;-84
2023/08/25 10:43:49;;;;;;;2.90;1.35;;;20.60;99.90;;;;;;4960039;28;20070;-83
2023/08/25 10:46:18;;;;;;;2.55;2.30;;;20.70;99.90;;;;;;4945562;28;20034;-83
2023/08/25 10:48:49;;;;;;;3.13;2.13;;;20.70;99.90;;;;;;4959696;28;20042;-82
2023/08/25 10:51:20;;;;;;;3.30;1.65;;;20.60;99.90;;;;;;4958357;28;20331;-83
2023/08/25 10:53:51;;;;;;;4.07;2.00;;;20.60;99.90;;;;;;4961019;28;20476;-81
2023/08/25 10:56:22;;;;;;;4.70;2.00;;;20.50;99.90;;;;;;4953710;28;20117;-83
2023/08/25 10:58:58;;;;;;;2.35;1.92;;;20.60;99.90;;;;;;4944168;28;20113;-84
2023/08/25 11:01:45;;;;;;;3.42;1.90;;;20.70;99.90;;;;;;4958036;28;20062;-83
2023/08/25 11:04:20;;;;;;;3.53;1.98;;;20.70;99.90;;;;;;4952045;28;20050;-84
2023/08/25 11:06:48;;;;;;;2.45;1.40;;;20.70;99.90;;;;;;4941419;28;20491;-82
2023/08/25 11:09:23;;;;;;;2.47;1.50;;;20.80;99.90;;;;;;4960679;28;20054;-81
2023/08/25 11:11:57;;;;;;;4.22;2.90;;;20.80;99.90;;;;;;4955567;28;20193;-83
2023/08/25 11:14:34;;;;;;;3.05;1.88;;;20.70;99.90;;;;;;4959894;28;20027;-83
2023/08/25 11:17:08;;;;;;;4.15;2.80;;;20.60;99.90;;;;;;4943020;28;20027;-83
2023/08/25 11:19:37;;;;;;;2.83;2.45;;;20.40;99.90;;;;;;4963463;28;20082;-84
2023/08/25 11:22:05;;;;;;;3.05;2.28;;;20.40;99.90;;;;;;4957484;28;20043;-83
2023/08/25 11:24:32;;;;;;;2.47;2.05;;;20.40;99.90;;;;;;4942462;28;20757;-84
2023/08/25 11:27:16;;;;;;;2.05;1.45;;;20.20;99.90;;;;;;4960969;28;20125;-84
2023/08/25 11:29:45;;;;;;;2.17;1.30;;;20.10;99.90;;;;;;4960587;28;20468;-83
2023/08/25 11:32:14;;;;;;;2.72;2.00;;;20.20;99.90;;;;;;4970988;28;20495;-84
2023/08/25 11:34:40;;;;;;;;;;;20.10;99.90;;;;;;4955906;28;20031;-84
2023/08/25 11:37:10;;;;;;;3.40;1.30;;;20.00;99.90;;;;;;4956661;28;19917;-83
2023/08/25 11:39:44;;;;;;;4.00;1.05;;;20.00;99.90;;;;;;4956607;28;20034;-83
2023/08/25 11:42:10;;;;;;;2.35;1.35;;;20.10;99.90;;;;;;4956503;28;20496;-85
2023/08/25 11:44:40;;;;;;;2.67;1.45;;;20.10;99.90;;;;;;4962187;28;20054;-84
2023/08/25 11:47:06;;;;;;;2.75;1.65;;;20.00;99.90;;;;;;4956889;28;20174;-84
2023/08/25 11:49:33;;;;;;;1.98;1.20;;;20.00;99.90;;;;;;4953751;28;20121;-82
2023/08/25 11:52:00;;;;;;;2.35;0.85;;;20.10;99.90;;;;;;4953647;28;20141;-85
2023/08/25 11:54:26;;;;;;;2.58;1.45;;;20.20;99.90;;;;;;4954810;28;20233;-81
2023/08/25 11:56:52;;;;;;;1.83;1.20;;;20.20;99.90;;;;;;4956376;28;20591;-82
2023/08/25 11:59:19;;;;;;;3.58;1.38;;;20.20;99.90;;;;;;4954421;28;20459;-82
2023/08/25 12:01:49;;;;;;;3.85;1.45;;;20.30;99.90;;;;;;4953254;28;20089;-84
2023/08/25 12:04:23;;;;;;;2.30;1.77;;;20.30;99.90;;;;;;4970231;28;20038;-86
2023/08/25 12:06:53;;;;;;;2.13;1.80;;;20.30;99.90;;;;;;4955282;28;20039;-82
2023/08/25 12:09:22;;;;;;;2.40;1.10;;;20.50;99.90;;;;;;4953839;28;20054;-83
2023/08/25 12:11:48;;;;;;;2.20;1.45;;;20.40;99.90;;;;;;4959670;28;20137;-82
2023/08/25 12:14:24;;;;;;;2.38;1.88;;;20.50;99.90;;;;;;4952829;28;20031;-82
2023/08/25 12:16:50;;;;;;;2.67;1.67;;;20.90;99.90;;;;;;4959293;28;20053;-83
2023/08/25 12:19:16;;;;;;;2.17;1.63;;;21.00;99.90;;;;;;4945740;28;20027;-84
2023/08/25 12:21:41;;;;;;;2.60;1.80;;;21.10;99.90;;;;;;4959297;28;20496;-83
2023/08/25 12:24:07;;;;;;;3.58;2.60;;;20.90;99.90;;;;;;4967472;28;20487;-83
2023/08/25 12:26:33;;;;;;;2.38;1.23;;;20.70;99.90;;;;;;4961902;28;20034;-85
2023/08/25 12:28:58;;;;;;;2.58;1.70;;;20.80;99.90;;;;;;4955586;28;20160;-82
2023/08/25 12:31:24;;;;;;;2.47;1.90;;;20.80;99.90;;;;;;4958775;28;20031;-84
2023/08/25 12:33:50;;;;;;;3.95;1.83;;;20.80;99.90;;;;;;4962841;28;20483;-83
2023/08/25 12:36:15;;;;;;;3.00;1.58;;;20.80;99.90;;;;;;4946113;28;20031;-83
2023/08/25 12:38:41;;;;;;;2.75;2.45;;;20.80;99.90;;;;;;4959491;28;20051;-82
2023/08/25 12:41:07;;;;;;;3.05;2.75;;;21.00;99.90;;;;;;4958703;28;20035;-84
2023/08/25 12:43:35;;;;;;;4.78;2.40;;;21.00;99.90;;;;;;4960317;28;20037;-82
2023/08/25 12:46:00;;;;;;;1.55;0.85;;;21.10;99.90;;;;;;4964778;28;20480;-82
2023/08/25 12:48:26;;;;;;;2.22;2.03;;;21.20;99.90;;;;;;4959866;28;20033;-84
2023/08/25 12:50:52;;;;;;;2.08;1.25;;;21.00;99.90;;;;;;4957842;28;20130;-82